Bexhill, United Kingdom
Current Conditions -  °F | °C
As of 12:50 PM on Monday 22 Dec 2014 (Local Time) from EGMD Reporting Station
Broken Clouds Broken Clouds  
Wind Chill: 13°   Ceiling: 2400
Heat Index: 13°   Visibility: 6mi
Dew Point: 11°   Wind: 29mph
Humidity: 88%   Direction: 250°WSW
Pressure: 30.12"   Gusts: NA
Location:  50.85°N, 0.47°E
Report Text: EGMD 221250Z 25025KT 9999 SCT017 BKN024 13/11 Q1020
Loading
Personal Weather Stations






























Interactive Weather Map New forecast layout! Learn more

10-Day Weather Forecast

Advertisements
Track Severe Weather on mobile